sensor_id;sensor_type;location;lat;lon;timestamp;temperature;humidity
10986;DHT22;5546;48.714;8.738;2023-08-31T00:02:12;16.50;99.90
10986;DHT22;5546;48.714;8.738;2023-08-31T00:04:37;16.50;99.90
10986;DHT22;5546;48.714;8.738;2023-08-31T00:07:03;16.50;99.90
10986;DHT22;5546;48.714;8.738;2023-08-31T00:09:29;16.50;99.90
10986;DHT22;5546;48.714;8.738;2023-08-31T00:11:57;15.50;99.90
10986;DHT22;5546;48.714;8.738;2023-08-31T00:14:26;15.60;99.90
10986;DHT22;5546;48.714;8.738;2023-08-31T00:16:52;15.80;99.90
10986;DHT22;5546;48.714;8.738;2023-08-31T00:19:17;15.90;99.90
10986;DHT22;5546;48.714;8.738;2023-08-31T00:21:43;15.90;99.90
10986;DHT22;5546;48.714;8.738;2023-08-31T00:24:09;15.90;99.90
10986;DHT22;5546;48.714;8.738;2023-08-31T00:26:36;15.90;99.90
10986;DHT22;5546;48.714;8.738;2023-08-31T00:29:09;15.90;99.90
10986;DHT22;5546;48.714;8.738;2023-08-31T00:31:36;15.60;99.90
10986;DHT22;5546;48.714;8.738;2023-08-31T00:34:02;15.60;99.90
10986;DHT22;5546;48.714;8.738;2023-08-31T00:36:29;15.70;99.90
10986;DHT22;5546;48.714;8.738;2023-08-31T00:38:55;15.40;99.90
10986;DHT22;5546;48.714;8.738;2023-08-31T00:41:22;15.50;99.90
10986;DHT22;5546;48.714;8.738;2023-08-31T00:43:48;15.50;99.90
10986;DHT22;5546;48.714;8.738;2023-08-31T00:46:14;15.70;99.90
10986;DHT22;5546;48.714;8.738;2023-08-31T00:48:40;15.50;99.90
10986;DHT22;5546;48.714;8.738;2023-08-31T00:51:06;15.50;99.90
10986;DHT22;5546;48.714;8.738;2023-08-31T00:53:33;15.50;99.90
10986;DHT22;5546;48.714;8.738;2023-08-31T00:56:00;15.50;99.90
10986;DHT22;5546;48.714;8.738;2023-08-31T01:01:06;15.60;99.90
10986;DHT22;5546;48.714;8.738;2023-08-31T01:03:36;15.60;99.90
10986;DHT22;5546;48.714;8.738;2023-08-31T01:11:56;15.80;99.90
10986;DHT22;5546;48.714;8.738;2023-08-31T01:14:25;15.70;99.90
10986;DHT22;5546;48.714;8.738;2023-08-31T01:16:53;15.60;99.90
10986;DHT22;5546;48.714;8.738;2023-08-31T01:22:13;15.80;99.90
10986;DHT22;5546;48.714;8.738;2023-08-31T01:24:41;15.70;99.90
10986;DHT22;5546;48.714;8.738;2023-08-31T01:27:06;15.90;99.90
10986;DHT22;5546;48.714;8.738;2023-08-31T01:29:32;16.00;99.90
10986;DHT22;5546;48.714;8.738;2023-08-31T01:31:58;16.10;99.90
10986;DHT22;5546;48.714;8.738;2023-08-31T01:34:23;15.80;99.90
10986;DHT22;5546;48.714;8.738;2023-08-31T01:36:53;15.70;99.90
10986;DHT22;5546;48.714;8.738;2023-08-31T01:39:26;15.60;99.90
10986;DHT22;5546;48.714;8.738;2023-08-31T01:41:58;15.80;99.90
10986;DHT22;5546;48.714;8.738;2023-08-31T01:44:26;15.90;99.90
10986;DHT22;5546;48.714;8.738;2023-08-31T01:46:53;15.90;99.90
10986;DHT22;5546;48.714;8.738;2023-08-31T01:49:20;15.90;99.90
10986;DHT22;5546;48.714;8.738;2023-08-31T01:51:46;15.90;99.90
10986;DHT22;5546;48.714;8.738;2023-08-31T01:54:12;15.90;99.90
10986;DHT22;5546;48.714;8.738;2023-08-31T01:56:38;15.90;99.90
10986;DHT22;5546;48.714;8.738;2023-08-31T01:59:03;16.00;99.90
10986;DHT22;5546;48.714;8.738;2023-08-31T02:01:29;16.00;99.90
10986;DHT22;5546;48.714;8.738;2023-08-31T02:03:54;16.10;99.90
10986;DHT22;5546;48.714;8.738;2023-08-31T02:06:20;16.10;99.90
10986;DHT22;5546;48.714;8.738;2023-08-31T02:08:46;16.10;99.90
10986;DHT22;5546;48.714;8.738;2023-08-31T02:11:13;15.70;99.90
10986;DHT22;5546;48.714;8.738;2023-08-31T02:13:39;15.50;99.90
10986;DHT22;5546;48.714;8.738;2023-08-31T02:16:05;15.50;99.90
10986;DHT22;5546;48.714;8.738;2023-08-31T02:18:30;15.60;99.90
10986;DHT22;5546;48.714;8.738;2023-08-31T02:20:56;15.70;99.90
10986;DHT22;5546;48.714;8.738;2023-08-31T02:23:22;15.90;99.90
10986;DHT22;5546;48.714;8.738;2023-08-31T02:25:48;16.10;99.90
10986;DHT22;5546;48.714;8.738;2023-08-31T02:28:13;16.20;99.90
10986;DHT22;5546;48.714;8.738;2023-08-31T02:30:39;16.20;99.90
10986;DHT22;5546;48.714;8.738;2023-08-31T02:33:04;15.90;99.90
10986;DHT22;5546;48.714;8.738;2023-08-31T02:35:30;15.90;99.90
10986;DHT22;5546;48.714;8.738;2023-08-31T02:40:21;15.90;99.90
10986;DHT22;5546;48.714;8.738;2023-08-31T02:42:50;16.00;99.90
10986;DHT22;5546;48.714;8.738;2023-08-31T02:45:15;15.80;99.90
10986;DHT22;5546;48.714;8.738;2023-08-31T02:47:41;15.80;99.90
10986;DHT22;5546;48.714;8.738;2023-08-31T02:50:07;16.00;99.90
10986;DHT22;5546;48.714;8.738;2023-08-31T02:52:32;16.10;99.90
10986;DHT22;5546;48.714;8.738;2023-08-31T02:54:58;16.10;99.90
10986;DHT22;5546;48.714;8.738;2023-08-31T02:57:23;15.80;99.90
10986;DHT22;5546;48.714;8.738;2023-08-31T02:59:50;15.60;99.90
10986;DHT22;5546;48.714;8.738;2023-08-31T03:02:15;15.60;99.90
10986;DHT22;5546;48.714;8.738;2023-08-31T03:04:41;15.50;99.90
10986;DHT22;5546;48.714;8.738;2023-08-31T03:07:06;15.50;99.90
10986;DHT22;5546;48.714;8.738;2023-08-31T03:09:32;15.40;99.90
10986;DHT22;5546;48.714;8.738;2023-08-31T03:14:23;15.70;99.90
10986;DHT22;5546;48.714;8.738;2023-08-31T03:16:49;15.50;99.90
10986;DHT22;5546;48.714;8.738;2023-08-31T03:19:14;15.20;99.90
10986;DHT22;5546;48.714;8.738;2023-08-31T03:21:40;15.10;99.90
10986;DHT22;5546;48.714;8.738;2023-08-31T03:24:06;14.80;99.90
10986;DHT22;5546;48.714;8.738;2023-08-31T03:26:31;14.80;99.90
10986;DHT22;5546;48.714;8.738;2023-08-31T03:28:57;15.00;99.90
10986;DHT22;5546;48.714;8.738;2023-08-31T03:31:23;15.40;99.90
10986;DHT22;5546;48.714;8.738;2023-08-31T03:33:50;15.30;99.90
10986;DHT22;5546;48.714;8.738;2023-08-31T03:36:15;15.40;99.90
10986;DHT22;5546;48.714;8.738;2023-08-31T03:38:41;15.40;99.90
10986;DHT22;5546;48.714;8.738;2023-08-31T03:41:06;15.50;99.90
10986;DHT22;5546;48.714;8.738;2023-08-31T03:43:32;15.70;99.90
10986;DHT22;5546;48.714;8.738;2023-08-31T03:45:59;15.50;99.90
10986;DHT22;5546;48.714;8.738;2023-08-31T03:48:25;15.50;99.90
10986;DHT22;5546;48.714;8.738;2023-08-31T03:50:54;15.50;99.90
10986;DHT22;5546;48.714;8.738;2023-08-31T03:53:20;15.60;99.90
10986;DHT22;5546;48.714;8.738;2023-08-31T03:55:45;15.60;99.90
10986;DHT22;5546;48.714;8.738;2023-08-31T03:58:11;15.60;99.90
10986;DHT22;5546;48.714;8.738;2023-08-31T04:00:37;15.90;99.90
10986;DHT22;5546;48.714;8.738;2023-08-31T04:03:03;16.10;99.90
10986;DHT22;5546;48.714;8.738;2023-08-31T04:05:33;15.80;99.90
10986;DHT22;5546;48.714;8.738;2023-08-31T04:10:28;15.80;99.90
10986;DHT22;5546;48.714;8.738;2023-08-31T04:12:55;15.80;99.90
10986;DHT22;5546;48.714;8.738;2023-08-31T04:15:20;15.70;99.90
10986;DHT22;5546;48.714;8.738;2023-08-31T04:17:46;15.80;99.90
10986;DHT22;5546;48.714;8.738;2023-08-31T04:20:12;15.60;99.90
10986;DHT22;5546;48.714;8.738;2023-08-31T04:22:37;15.60;99.90
10986;DHT22;5546;48.714;8.738;2023-08-31T04:25:03;15.80;99.90
10986;DHT22;5546;48.714;8.738;2023-08-31T04:27:29;15.80;99.90
10986;DHT22;5546;48.714;8.738;2023-08-31T04:30:01;15.80;99.90
10986;DHT22;5546;48.714;8.738;2023-08-31T04:32:27;15.70;99.90
10986;DHT22;5546;48.714;8.738;2023-08-31T04:34:53;15.80;99.90
10986;DHT22;5546;48.714;8.738;2023-08-31T04:37:19;15.70;99.90
10986;DHT22;5546;48.714;8.738;2023-08-31T04:39:44;15.70;99.90
10986;DHT22;5546;48.714;8.738;2023-08-31T04:42:10;16.00;99.90
10986;DHT22;5546;48.714;8.738;2023-08-31T04:44:35;15.90;99.90
10986;DHT22;5546;48.714;8.738;2023-08-31T04:47:01;15.70;99.90
10986;DHT22;5546;48.714;8.738;2023-08-31T04:49:27;15.70;99.90
10986;DHT22;5546;48.714;8.738;2023-08-31T04:51:52;15.70;99.90
10986;DHT22;5546;48.714;8.738;2023-08-31T04:54:18;15.70;99.90
10986;DHT22;5546;48.714;8.738;2023-08-31T04:56:44;15.70;99.90
10986;DHT22;5546;48.714;8.738;2023-08-31T04:59:09;15.60;99.90
10986;DHT22;5546;48.714;8.738;2023-08-31T05:01:35;15.60;99.90
10986;DHT22;5546;48.714;8.738;2023-08-31T05:04:01;15.40;99.90
10986;DHT22;5546;48.714;8.738;2023-08-31T05:06:27;15.40;99.90
10986;DHT22;5546;48.714;8.738;2023-08-31T05:08:53;15.40;99.90
10986;DHT22;5546;48.714;8.738;2023-08-31T05:11:18;15.60;99.90
10986;DHT22;5546;48.714;8.738;2023-08-31T05:13:44;15.60;99.90
10986;DHT22;5546;48.714;8.738;2023-08-31T05:16:09;15.40;99.90
10986;DHT22;5546;48.714;8.738;2023-08-31T05:21:02;15.10;99.90
10986;DHT22;5546;48.714;8.738;2023-08-31T05:23:28;15.10;99.90
10986;DHT22;5546;48.714;8.738;2023-08-31T05:25:54;15.10;99.90
10986;DHT22;5546;48.714;8.738;2023-08-31T05:28:22;15.30;99.90
10986;DHT22;5546;48.714;8.738;2023-08-31T05:30:49;15.40;99.90
10986;DHT22;5546;48.714;8.738;2023-08-31T05:33:16;15.70;99.90
10986;DHT22;5546;48.714;8.738;2023-08-31T05:35:42;15.70;99.90
10986;DHT22;5546;48.714;8.738;2023-08-31T05:38:07;16.20;99.90
10986;DHT22;5546;48.714;8.738;2023-08-31T05:40:33;16.80;99.90
10986;DHT22;5546;48.714;8.738;2023-08-31T05:42:58;16.90;99.90
10986;DHT22;5546;48.714;8.738;2023-08-31T05:45:24;17.20;99.90
10986;DHT22;5546;48.714;8.738;2023-08-31T05:47:49;17.50;99.90
10986;DHT22;5546;48.714;8.738;2023-08-31T05:50:15;17.80;99.90
10986;DHT22;5546;48.714;8.738;2023-08-31T05:52:40;17.90;99.90
10986;DHT22;5546;48.714;8.738;2023-08-31T05:55:09;18.20;99.90
10986;DHT22;5546;48.714;8.738;2023-08-31T05:57:35;18.90;99.50
10986;DHT22;5546;48.714;8.738;2023-08-31T06:02:27;19.30;99.00
10986;DHT22;5546;48.714;8.738;2023-08-31T06:04:53;19.90;97.70
10986;DHT22;5546;48.714;8.738;2023-08-31T06:07:19;20.00;97.70
10986;DHT22;5546;48.714;8.738;2023-08-31T06:09:44;19.40;97.30
10986;DHT22;5546;48.714;8.738;2023-08-31T06:12:10;19.40;97.60
10986;DHT22;5546;48.714;8.738;2023-08-31T06:14:35;18.30;99.20
10986;DHT22;5546;48.714;8.738;2023-08-31T06:17:01;17.80;99.90
10986;DHT22;5546;48.714;8.738;2023-08-31T06:21:52;17.50;99.90
10986;DHT22;5546;48.714;8.738;2023-08-31T06:24:18;17.80;99.90
10986;DHT22;5546;48.714;8.738;2023-08-31T06:26:43;18.00;99.90
10986;DHT22;5546;48.714;8.738;2023-08-31T06:29:09;17.90;99.90
10986;DHT22;5546;48.714;8.738;2023-08-31T06:31:36;17.90;99.90
10986;DHT22;5546;48.714;8.738;2023-08-31T06:34:01;17.10;99.90
10986;DHT22;5546;48.714;8.738;2023-08-31T06:36:27;17.00;99.90
10986;DHT22;5546;48.714;8.738;2023-08-31T06:38:53;16.90;99.90
10986;DHT22;5546;48.714;8.738;2023-08-31T06:41:18;17.20;99.90
10986;DHT22;5546;48.714;8.738;2023-08-31T06:43:44;17.40;99.90
10986;DHT22;5546;48.714;8.738;2023-08-31T06:46:11;17.60;99.90
10986;DHT22;5546;48.714;8.738;2023-08-31T06:48:36;17.50;99.90
10986;DHT22;5546;48.714;8.738;2023-08-31T06:51:02;17.70;99.90
10986;DHT22;5546;48.714;8.738;2023-08-31T06:53:29;18.50;99.90
10986;DHT22;5546;48.714;8.738;2023-08-31T06:55:56;19.60;99.40
10986;DHT22;5546;48.714;8.738;2023-08-31T06:58:22;19.80;99.50
10986;DHT22;5546;48.714;8.738;2023-08-31T07:00:47;21.10;97.40
10986;DHT22;5546;48.714;8.738;2023-08-31T07:03:13;21.50;96.20
10986;DHT22;5546;48.714;8.738;2023-08-31T07:05:42;21.60;96.50
10986;DHT22;5546;48.714;8.738;2023-08-31T07:08:08;22.90;94.80
10986;DHT22;5546;48.714;8.738;2023-08-31T07:10:34;23.50;93.60
10986;DHT22;5546;48.714;8.738;2023-08-31T07:13:02;23.90;93.10
10986;DHT22;5546;48.714;8.738;2023-08-31T07:15:29;24.30;91.10
10986;DHT22;5546;48.714;8.738;2023-08-31T07:17:54;24.20;91.60
10986;DHT22;5546;48.714;8.738;2023-08-31T07:20:20;23.90;91.10
10986;DHT22;5546;48.714;8.738;2023-08-31T07:22:45;23.80;91.90
10986;DHT22;5546;48.714;8.738;2023-08-31T07:25:11;24.00;92.00
10986;DHT22;5546;48.714;8.738;2023-08-31T07:27:37;23.60;92.30
10986;DHT22;5546;48.714;8.738;2023-08-31T07:30:04;23.30;93.30
10986;DHT22;5546;48.714;8.738;2023-08-31T07:32:30;22.90;93.70
10986;DHT22;5546;48.714;8.738;2023-08-31T07:34:56;23.30;93.30
10986;DHT22;5546;48.714;8.738;2023-08-31T07:37:22;24.30;91.50
10986;DHT22;5546;48.714;8.738;2023-08-31T07:39:47;24.50;91.00
10986;DHT22;5546;48.714;8.738;2023-08-31T07:42:13;25.20;88.10
10986;DHT22;5546;48.714;8.738;2023-08-31T07:44:38;25.80;86.20
10986;DHT22;5546;48.714;8.738;2023-08-31T07:47:04;26.00;85.80
10986;DHT22;5546;48.714;8.738;2023-08-31T07:49:30;26.60;83.40
10986;DHT22;5546;48.714;8.738;2023-08-31T07:51:56;26.00;81.90
10986;DHT22;5546;48.714;8.738;2023-08-31T07:54:22;25.80;82.50
10986;DHT22;5546;48.714;8.738;2023-08-31T07:56:48;25.80;83.00
10986;DHT22;5546;48.714;8.738;2023-08-31T07:59:13;26.30;82.00
10986;DHT22;5546;48.714;8.738;2023-08-31T08:01:39;27.20;76.40
10986;DHT22;5546;48.714;8.738;2023-08-31T08:04:06;28.00;72.20
10986;DHT22;5546;48.714;8.738;2023-08-31T08:06:31;27.50;76.90
10986;DHT22;5546;48.714;8.738;2023-08-31T08:08:57;28.50;73.20
10986;DHT22;5546;48.714;8.738;2023-08-31T08:11:23;29.50;71.60
10986;DHT22;5546;48.714;8.738;2023-08-31T08:13:48;28.90;68.20
10986;DHT22;5546;48.714;8.738;2023-08-31T08:16:14;29.10;67.40
10986;DHT22;5546;48.714;8.738;2023-08-31T08:18:40;28.30;66.20
10986;DHT22;5546;48.714;8.738;2023-08-31T08:21:06;28.40;66.80
10986;DHT22;5546;48.714;8.738;2023-08-31T08:23:31;28.50;63.70
10986;DHT22;5546;48.714;8.738;2023-08-31T08:25:57;28.60;63.40
10986;DHT22;5546;48.714;8.738;2023-08-31T08:28:25;28.20;60.00
10986;DHT22;5546;48.714;8.738;2023-08-31T08:30:50;27.50;61.30
10986;DHT22;5546;48.714;8.738;2023-08-31T08:33:16;26.70;67.90
10986;DHT22;5546;48.714;8.738;2023-08-31T08:35:41;25.90;64.90
10986;DHT22;5546;48.714;8.738;2023-08-31T08:38:07;25.80;72.80
10986;DHT22;5546;48.714;8.738;2023-08-31T08:40:33;26.10;69.80
10986;DHT22;5546;48.714;8.738;2023-08-31T08:43:01;26.60;73.50
10986;DHT22;5546;48.714;8.738;2023-08-31T08:45:38;26.60;74.40
10986;DHT22;5546;48.714;8.738;2023-08-31T08:48:05;28.30;65.40
10986;DHT22;5546;48.714;8.738;2023-08-31T08:50:34;29.10;59.50
10986;DHT22;5546;48.714;8.738;2023-08-31T08:53:04;29.20;58.10
10986;DHT22;5546;48.714;8.738;2023-08-31T08:55:30;29.60;58.50
10986;DHT22;5546;48.714;8.738;2023-08-31T09:00:22;28.90;56.00
10986;DHT22;5546;48.714;8.738;2023-08-31T09:02:48;28.80;56.40
10986;DHT22;5546;48.714;8.738;2023-08-31T09:05:13;29.10;60.50
10986;DHT22;5546;48.714;8.738;2023-08-31T09:08:06;28.40;55.70
10986;DHT22;5546;48.714;8.738;2023-08-31T09:10:37;27.20;57.60
10986;DHT22;5546;48.714;8.738;2023-08-31T09:13:07;27.20;58.10
10986;DHT22;5546;48.714;8.738;2023-08-31T09:15:41;25.90;58.10
10986;DHT22;5546;48.714;8.738;2023-08-31T09:18:10;25.50;61.00
10986;DHT22;5546;48.714;8.738;2023-08-31T09:20:46;25.80;59.30
10986;DHT22;5546;48.714;8.738;2023-08-31T09:23:12;25.40;61.00
10986;DHT22;5546;48.714;8.738;2023-08-31T09:25:44;25.40;61.70
10986;DHT22;5546;48.714;8.738;2023-08-31T09:28:12;24.60;61.30
10986;DHT22;5546;48.714;8.738;2023-08-31T09:30:38;24.60;62.00
10986;DHT22;5546;48.714;8.738;2023-08-31T09:33:09;24.80;61.50
10986;DHT22;5546;48.714;8.738;2023-08-31T09:35:49;24.20;63.10
10986;DHT22;5546;48.714;8.738;2023-08-31T09:38:16;24.90;62.10
10986;DHT22;5546;48.714;8.738;2023-08-31T09:40:42;24.40;61.00
10986;DHT22;5546;48.714;8.738;2023-08-31T09:43:07;24.50;61.50
10986;DHT22;5546;48.714;8.738;2023-08-31T09:45:33;24.50;62.20
10986;DHT22;5546;48.714;8.738;2023-08-31T09:48:00;23.70;64.50
10986;DHT22;5546;48.714;8.738;2023-08-31T09:50:29;23.20;72.30
10986;DHT22;5546;48.714;8.738;2023-08-31T09:52:55;23.50;66.30
10986;DHT22;5546;48.714;8.738;2023-08-31T09:55:25;23.90;66.10
10986;DHT22;5546;48.714;8.738;2023-08-31T09:57:52;23.90;64.70
10986;DHT22;5546;48.714;8.738;2023-08-31T10:00:18;24.20;66.30
10986;DHT22;5546;48.714;8.738;2023-08-31T10:02:44;25.00;62.90
10986;DHT22;5546;48.714;8.738;2023-08-31T10:07:38;26.10;61.00
10986;DHT22;5546;48.714;8.738;2023-08-31T10:10:05;26.00;60.50
10986;DHT22;5546;48.714;8.738;2023-08-31T10:12:32;25.80;59.70
10986;DHT22;5546;48.714;8.738;2023-08-31T10:15:00;25.20;60.90
10986;DHT22;5546;48.714;8.738;2023-08-31T10:17:26;24.10;63.80
10986;DHT22;5546;48.714;8.738;2023-08-31T10:19:52;24.50;64.50
10986;DHT22;5546;48.714;8.738;2023-08-31T10:22:19;25.30;63.90
10986;DHT22;5546;48.714;8.738;2023-08-31T10:27:26;25.50;62.10
10986;DHT22;5546;48.714;8.738;2023-08-31T10:29:52;25.00;62.50
10986;DHT22;5546;48.714;8.738;2023-08-31T10:32:18;26.20;60.70
10986;DHT22;5546;48.714;8.738;2023-08-31T10:35:04;26.30;61.00
10986;DHT22;5546;48.714;8.738;2023-08-31T10:37:30;30.10;54.40
10986;DHT22;5546;48.714;8.738;2023-08-31T10:40:24;29.90;57.10
10986;DHT22;5546;48.714;8.738;2023-08-31T10:43:16;29.90;53.50
10986;DHT22;5546;48.714;8.738;2023-08-31T10:45:45;30.00;54.60
10986;DHT22;5546;48.714;8.738;2023-08-31T10:48:11;32.00;52.70
10986;DHT22;5546;48.714;8.738;2023-08-31T10:50:44;33.90;50.40
10986;DHT22;5546;48.714;8.738;2023-08-31T10:53:10;32.70;48.60
10986;DHT22;5546;48.714;8.738;2023-08-31T10:55:52;29.60;53.00
10986;DHT22;5546;48.714;8.738;2023-08-31T10:58:18;28.10;55.00
10986;DHT22;5546;48.714;8.738;2023-08-31T11:01:02;28.00;55.90
10986;DHT22;5546;48.714;8.738;2023-08-31T11:03:29;27.00;55.80
10986;DHT22;5546;48.714;8.738;2023-08-31T11:05:55;27.30;55.90
10986;DHT22;5546;48.714;8.738;2023-08-31T11:08:27;27.50;56.20
10986;DHT22;5546;48.714;8.738;2023-08-31T11:10:52;28.30;54.60
10986;DHT22;5546;48.714;8.738;2023-08-31T11:13:23;27.80;56.50
10986;DHT22;5546;48.714;8.738;2023-08-31T11:15:48;28.30;57.90
10986;DHT22;5546;48.714;8.738;2023-08-31T11:18:14;28.70;54.60
10986;DHT22;5546;48.714;8.738;2023-08-31T11:20:43;27.60;55.30
10986;DHT22;5546;48.714;8.738;2023-08-31T11:23:08;27.50;56.70
10986;DHT22;5546;48.714;8.738;2023-08-31T11:25:34;27.20;56.50
10986;DHT22;5546;48.714;8.738;2023-08-31T11:28:02;27.80;54.40
10986;DHT22;5546;48.714;8.738;2023-08-31T11:30:31;27.90;55.40
10986;DHT22;5546;48.714;8.738;2023-08-31T11:33:02;27.50;60.60
10986;DHT22;5546;48.714;8.738;2023-08-31T11:35:41;26.20;57.80
10986;DHT22;5546;48.714;8.738;2023-08-31T11:38:08;26.00;58.60
10986;DHT22;5546;48.714;8.738;2023-08-31T11:40:33;25.20;59.60
10986;DHT22;5546;48.714;8.738;2023-08-31T11:42:59;24.70;60.10
10986;DHT22;5546;48.714;8.738;2023-08-31T11:45:35;24.90;66.60
10986;DHT22;5546;48.714;8.738;2023-08-31T11:48:01;25.10;68.00
10986;DHT22;5546;48.714;8.738;2023-08-31T11:50:28;26.70;66.40
10986;DHT22;5546;48.714;8.738;2023-08-31T11:52:54;27.60;60.10
10986;DHT22;5546;48.714;8.738;2023-08-31T11:55:20;27.10;57.20
10986;DHT22;5546;48.714;8.738;2023-08-31T11:57:53;26.40;59.80
10986;DHT22;5546;48.714;8.738;2023-08-31T12:00:23;25.80;58.60
10986;DHT22;5546;48.714;8.738;2023-08-31T12:02:58;25.30;66.60
10986;DHT22;5546;48.714;8.738;2023-08-31T12:05:23;25.20;73.70
10986;DHT22;5546;48.714;8.738;2023-08-31T12:07:49;24.70;76.10
10986;DHT22;5546;48.714;8.738;2023-08-31T12:10:16;25.20;76.10
10986;DHT22;5546;48.714;8.738;2023-08-31T12:12:41;25.80;72.30
10986;DHT22;5546;48.714;8.738;2023-08-31T12:15:07;25.80;72.80
10986;DHT22;5546;48.714;8.738;2023-08-31T12:17:39;25.20;75.00
10986;DHT22;5546;48.714;8.738;2023-08-31T12:20:06;25.30;75.30
10986;DHT22;5546;48.714;8.738;2023-08-31T12:22:32;24.50;78.00
10986;DHT22;5546;48.714;8.738;2023-08-31T12:24:58;24.00;77.90
10986;DHT22;5546;48.714;8.738;2023-08-31T12:27:23;23.70;79.30
10986;DHT22;5546;48.714;8.738;2023-08-31T12:29:49;23.20;82.10
10986;DHT22;5546;48.714;8.738;2023-08-31T12:32:16;23.50;78.20
10986;DHT22;5546;48.714;8.738;2023-08-31T12:34:43;23.50;79.00
10986;DHT22;5546;48.714;8.738;2023-08-31T12:37:08;23.40;71.20
10986;DHT22;5546;48.714;8.738;2023-08-31T12:39:34;23.40;73.20
10986;DHT22;5546;48.714;8.738;2023-08-31T12:42:00;23.90;70.70
10986;DHT22;5546;48.714;8.738;2023-08-31T12:44:25;26.30;64.30
10986;DHT22;5546;48.714;8.738;2023-08-31T12:46:51;28.70;58.80
10986;DHT22;5546;48.714;8.738;2023-08-31T12:49:17;30.30;54.90
10986;DHT22;5546;48.714;8.738;2023-08-31T12:51:45;30.50;53.10
10986;DHT22;5546;48.714;8.738;2023-08-31T12:54:11;29.80;54.00
10986;DHT22;5546;48.714;8.738;2023-08-31T12:56:36;29.10;53.60
10986;DHT22;5546;48.714;8.738;2023-08-31T12:59:03;29.10;54.10
10986;DHT22;5546;48.714;8.738;2023-08-31T13:01:30;28.70;52.90
10986;DHT22;5546;48.714;8.738;2023-08-31T13:03:57;28.10;54.00
10986;DHT22;5546;48.714;8.738;2023-08-31T13:06:23;28.20;53.10
10986;DHT22;5546;48.714;8.738;2023-08-31T13:08:50;27.80;54.30
10986;DHT22;5546;48.714;8.738;2023-08-31T13:11:16;27.80;55.10
10986;DHT22;5546;48.714;8.738;2023-08-31T13:13:42;27.50;55.20
10986;DHT22;5546;48.714;8.738;2023-08-31T13:16:08;28.20;59.60
10986;DHT22;5546;48.714;8.738;2023-08-31T13:18:34;28.20;53.50
10986;DHT22;5546;48.714;8.738;2023-08-31T13:21:00;27.00;56.60
10986;DHT22;5546;48.714;8.738;2023-08-31T13:23:25;27.00;60.80
10986;DHT22;5546;48.714;8.738;2023-08-31T13:25:51;26.70;60.40
10986;DHT22;5546;48.714;8.738;2023-08-31T13:28:17;24.80;63.50
10986;DHT22;5546;48.714;8.738;2023-08-31T13:30:42;24.50;65.80
10986;DHT22;5546;48.714;8.738;2023-08-31T13:33:08;24.00;61.50
10986;DHT22;5546;48.714;8.738;2023-08-31T13:38:01;23.30;64.90
10986;DHT22;5546;48.714;8.738;2023-08-31T13:40:28;23.60;68.20
10986;DHT22;5546;48.714;8.738;2023-08-31T13:42:54;23.80;65.30
10986;DHT22;5546;48.714;8.738;2023-08-31T13:45:22;23.70;76.30
10986;DHT22;5546;48.714;8.738;2023-08-31T13:47:48;23.70;74.90
10986;DHT22;5546;48.714;8.738;2023-08-31T13:50:15;23.30;76.80
10986;DHT22;5546;48.714;8.738;2023-08-31T13:52:40;23.30;78.00
10986;DHT22;5546;48.714;8.738;2023-08-31T13:55:07;25.70;66.30
10986;DHT22;5546;48.714;8.738;2023-08-31T13:57:32;26.50;60.20
10986;DHT22;5546;48.714;8.738;2023-08-31T13:59:58;26.60;66.00
10986;DHT22;5546;48.714;8.738;2023-08-31T14:02:23;26.10;68.90
10986;DHT22;5546;48.714;8.738;2023-08-31T14:04:49;26.10;69.50
10986;DHT22;5546;48.714;8.738;2023-08-31T14:07:14;24.50;65.10
10986;DHT22;5546;48.714;8.738;2023-08-31T14:09:40;24.20;75.20
10986;DHT22;5546;48.714;8.738;2023-08-31T14:12:06;23.70;76.70
10986;DHT22;5546;48.714;8.738;2023-08-31T14:14:31;23.80;70.00
10986;DHT22;5546;48.714;8.738;2023-08-31T14:16:57;23.50;74.50
10986;DHT22;5546;48.714;8.738;2023-08-31T14:19:23;23.50;75.00
10986;DHT22;5546;48.714;8.738;2023-08-31T14:21:48;22.90;83.60
10986;DHT22;5546;48.714;8.738;2023-08-31T14:26:40;22.80;83.30
10986;DHT22;5546;48.714;8.738;2023-08-31T14:29:05;23.00;83.10
10986;DHT22;5546;48.714;8.738;2023-08-31T14:31:31;22.80;83.30
10986;DHT22;5546;48.714;8.738;2023-08-31T14:33:56;22.20;79.60
10986;DHT22;5546;48.714;8.738;2023-08-31T14:36:22;22.20;81.00
10986;DHT22;5546;48.714;8.738;2023-08-31T14:38:47;21.90;89.40
10986;DHT22;5546;48.714;8.738;2023-08-31T14:41:13;21.90;90.00
10986;DHT22;5546;48.714;8.738;2023-08-31T14:43:38;23.00;85.60
10986;DHT22;5546;48.714;8.738;2023-08-31T14:46:04;24.10;81.20
10986;DHT22;5546;48.714;8.738;2023-08-31T14:48:30;25.10;77.60
10986;DHT22;5546;48.714;8.738;2023-08-31T14:50:57;25.20;78.70
10986;DHT22;5546;48.714;8.738;2023-08-31T14:53:24;26.00;76.10
10986;DHT22;5546;48.714;8.738;2023-08-31T14:55:50;26.00;76.10
10986;DHT22;5546;48.714;8.738;2023-08-31T14:58:16;26.10;72.80
10986;DHT22;5546;48.714;8.738;2023-08-31T15:00:41;26.20;71.10
10986;DHT22;5546;48.714;8.738;2023-08-31T15:03:07;25.60;71.60
10986;DHT22;5546;48.714;8.738;2023-08-31T15:05:32;25.30;71.10
10986;DHT22;5546;48.714;8.738;2023-08-31T15:08:00;24.80;70.70
10986;DHT22;5546;48.714;8.738;2023-08-31T15:10:27;24.50;71.60
10986;DHT22;5546;48.714;8.738;2023-08-31T15:12:52;24.20;74.30
10986;DHT22;5546;48.714;8.738;2023-08-31T15:15:23;23.80;76.00
10986;DHT22;5546;48.714;8.738;2023-08-31T15:17:49;23.30;73.60
10986;DHT22;5546;48.714;8.738;2023-08-31T15:20:14;23.10;75.30
10986;DHT22;5546;48.714;8.738;2023-08-31T15:22:40;23.20;79.60
10986;DHT22;5546;48.714;8.738;2023-08-31T15:25:05;22.50;74.80
10986;DHT22;5546;48.714;8.738;2023-08-31T15:27:31;22.40;84.20
10986;DHT22;5546;48.714;8.738;2023-08-31T15:32:23;22.30;85.00
10986;DHT22;5546;48.714;8.738;2023-08-31T15:34:49;22.20;85.90
10986;DHT22;5546;48.714;8.738;2023-08-31T15:39:40;22.10;81.20
10986;DHT22;5546;48.714;8.738;2023-08-31T15:42:06;22.10;80.60
10986;DHT22;5546;48.714;8.738;2023-08-31T15:46:59;22.70;83.50
10986;DHT22;5546;48.714;8.738;2023-08-31T15:49:25;23.10;77.20
10986;DHT22;5546;48.714;8.738;2023-08-31T15:51:51;23.40;83.60
10986;DHT22;5546;48.714;8.738;2023-08-31T15:56:43;23.90;83.20
10986;DHT22;5546;48.714;8.738;2023-08-31T15:59:08;23.90;77.20
10986;DHT22;5546;48.714;8.738;2023-08-31T16:01:34;23.60;76.10
10986;DHT22;5546;48.714;8.738;2023-08-31T16:04:01;23.30;75.30
10986;DHT22;5546;48.714;8.738;2023-08-31T16:06:28;23.30;77.60
10986;DHT22;5546;48.714;8.738;2023-08-31T16:08:54;23.20;82.50
10986;DHT22;5546;48.714;8.738;2023-08-31T16:11:20;22.90;77.70
10986;DHT22;5546;48.714;8.738;2023-08-31T16:13:47;23.10;79.50
10986;DHT22;5546;48.714;8.738;2023-08-31T16:16:13;23.30;80.60
10986;DHT22;5546;48.714;8.738;2023-08-31T16:18:38;23.30;76.10
10986;DHT22;5546;48.714;8.738;2023-08-31T16:21:04;22.90;75.60
10986;DHT22;5546;48.714;8.738;2023-08-31T16:23:30;22.70;85.00
10986;DHT22;5546;48.714;8.738;2023-08-31T16:25:55;22.60;84.30
10986;DHT22;5546;48.714;8.738;2023-08-31T16:30:47;22.70;83.60
10986;DHT22;5546;48.714;8.738;2023-08-31T16:35:39;22.50;89.70